createdAt,value
2023-02-11T00:01:34.382Z,40.75
2023-02-11T00:04:03.284Z,41.75
2023-02-11T00:06:33.506Z,45.65
2023-02-11T00:09:01.454Z,38.15
2023-02-11T00:11:30.619Z,48.92
2023-02-11T00:14:02.536Z,43.95
2023-02-11T00:16:32.007Z,42.13
2023-02-11T00:19:02.607Z,43.72
2023-02-11T00:21:30.390Z,41.17
2023-02-11T00:24:00.046Z,46.83
2023-02-11T00:26:36.380Z,46.78
2023-02-11T00:29:05.785Z,49.47
2023-02-11T00:31:34.488Z,36.65
2023-02-11T00:34:02.886Z,42.50
2023-02-11T00:36:30.528Z,48.22
2023-02-11T00:38:59.804Z,38.45
2023-02-11T00:41:29.408Z,44.35
2023-02-11T00:44:01.938Z,40.83
2023-02-11T00:46:30.327Z,39.30
2023-02-11T00:48:58.129Z,34.20
2023-02-11T00:51:27.391Z,40.17
2023-02-11T00:53:55.767Z,64.40
2023-02-11T00:56:24.308Z,35.90
2023-02-11T00:58:53.426Z,44.13
2023-02-11T01:01:21.853Z,45.92
2023-02-11T01:03:50.192Z,46.72
2023-02-11T01:06:17.872Z,36.33
2023-02-11T01:08:46.438Z,38.60
2023-02-11T01:11:18.086Z,46.08
2023-02-11T01:13:48.064Z,44.20
2023-02-11T01:16:17.469Z,40.60
2023-02-11T01:18:46.350Z,43.33
2023-02-11T01:21:14.860Z,42.05
2023-02-11T01:23:44.831Z,45.83
2023-02-11T01:26:13.355Z,43.80
2023-02-11T01:28:41.224Z,39.67
2023-02-11T01:31:08.840Z,45.05
2023-02-11T01:33:36.541Z,41.75
2023-02-11T01:36:07.835Z,39.63
2023-02-11T01:38:36.468Z,34.80
2023-02-11T01:41:07.413Z,44.28
2023-02-11T01:43:38.284Z,45.95
2023-02-11T01:46:21.254Z,41.97
2023-02-11T01:48:53.939Z,40.87
2023-02-11T01:51:27.431Z,37.40
2023-02-11T01:54:16.369Z,38.75
2023-02-11T01:57:07.333Z,39.90
2023-02-11T01:59:44.883Z,37.53
2023-02-11T02:02:15.234Z,35.60
2023-02-11T02:04:57.583Z,39.78
2023-02-11T02:07:39.641Z,48.42
2023-02-11T02:10:15.798Z,42.95
2023-02-11T02:12:43.993Z,39.63
2023-02-11T02:15:23.097Z,39.00
2023-02-11T02:18:20.597Z,35.95
2023-02-11T02:21:21.876Z,46.95
2023-02-11T02:24:21.073Z,39.60
2023-02-11T02:27:12.541Z,40.40
2023-02-11T02:29:46.524Z,46.10
2023-02-11T02:32:35.234Z,54.83
2023-02-11T02:35:30.977Z,52.55
2023-02-11T02:38:24.148Z,41.40
2023-02-11T02:41:21.088Z,50.00
2023-02-11T02:43:50.998Z,49.80
2023-02-11T02:46:24.360Z,45.45
2023-02-11T02:48:53.769Z,55.72
2023-02-11T02:51:27.668Z,52.78
2023-02-11T02:53:55.316Z,38.20
2023-02-11T02:56:49.182Z,51.25
2023-02-11T02:59:23.101Z,46.47
2023-02-11T03:02:03.500Z,41.25
2023-02-11T03:04:38.153Z,50.10
2023-02-11T03:07:26.179Z,49.40
2023-02-11T03:10:23.247Z,51.20
2023-02-11T03:12:54.095Z,42.72
2023-02-11T03:15:25.342Z,49.25
2023-02-11T03:17:57.378Z,46.83
2023-02-11T03:20:28.447Z,48.35
2023-02-11T03:23:03.063Z,44.88
2023-02-11T03:25:37.313Z,56.20
2023-02-11T03:28:25.338Z,61.67
2023-02-11T03:31:10.898Z,67.07
2023-02-11T03:33:54.830Z,52.78
2023-02-11T03:36:32.915Z,54.17
2023-02-11T03:39:04.266Z,55.53
2023-02-11T03:41:34.301Z,52.63
2023-02-11T03:44:03.362Z,51.30
2023-02-11T03:46:36.870Z,58.67
2023-02-11T03:49:09.366Z,60.42
2023-02-11T03:51:38.120Z,39.47
2023-02-11T03:54:14.941Z,55.20
2023-02-11T03:56:51.350Z,61.92
2023-02-11T03:59:19.569Z,59.08
2023-02-11T04:01:47.350Z,58.38
2023-02-11T04:04:15.640Z,65.25
2023-02-11T04:06:43.588Z,60.92
2023-02-11T04:09:12.757Z,55.03
2023-02-11T04:11:40.412Z,50.92
2023-02-11T04:14:07.990Z,57.47
2023-02-11T04:16:36.016Z,58.40
2023-02-11T04:19:04.244Z,55.55
2023-02-11T04:21:32.261Z,62.65
2023-02-11T04:24:00.257Z,56.42
2023-02-11T04:26:28.313Z,52.03
2023-02-11T04:28:55.904Z,49.53
2023-02-11T04:31:24.158Z,48.28
2023-02-11T04:33:52.203Z,51.42
2023-02-11T04:36:20.421Z,48.58
2023-02-11T04:38:48.856Z,60.75
2023-02-11T04:41:16.371Z,49.38
2023-02-11T04:43:44.057Z,50.42
2023-02-11T04:46:11.826Z,58.47
2023-02-11T04:48:39.429Z,63.53
2023-02-11T04:51:07.092Z,65.80
2023-02-11T04:53:35.231Z,60.42
2023-02-11T04:56:03.260Z,50.95
2023-02-11T04:58:31.196Z,63.50
2023-02-11T05:01:10.328Z,63.03
2023-02-11T05:03:38.665Z,59.33
2023-02-11T05:06:07.090Z,68.03
2023-02-11T05:08:34.807Z,64.28
2023-02-11T05:11:02.517Z,53.40
2023-02-11T05:13:31.195Z,56.13
2023-02-11T05:15:59.497Z,55.85
2023-02-11T05:18:28.234Z,54.58
2023-02-11T05:20:55.871Z,68.35
2023-02-11T05:23:23.498Z,57.88
2023-02-11T05:25:51.722Z,48.35
2023-02-11T05:28:19.510Z,50.38
2023-02-11T05:30:47.206Z,58.58
2023-02-11T05:33:15.323Z,67.80
2023-02-11T05:35:43.307Z,57.70
2023-02-11T05:38:11.168Z,58.78
2023-02-11T05:40:40.344Z,55.95
2023-02-11T05:43:08.405Z,52.67
2023-02-11T05:45:36.938Z,49.25
2023-02-11T05:48:04.671Z,55.72
2023-02-11T05:50:32.334Z,56.85
2023-02-11T05:53:00.585Z,61.60
2023-02-11T05:55:28.358Z,59.50
2023-02-11T05:57:56.379Z,60.03
2023-02-11T06:00:24.339Z,62.65
2023-02-11T06:02:52.673Z,56.83
2023-02-11T06:05:20.801Z,61.00
2023-02-11T06:07:48.836Z,65.97
2023-02-11T06:10:16.315Z,59.80
2023-02-11T06:12:44.917Z,57.10
2023-02-11T06:15:13.037Z,59.28
2023-02-11T06:17:41.156Z,59.42
2023-02-11T06:20:10.700Z,58.40
2023-02-11T06:22:38.445Z,69.30
2023-02-11T06:25:07.411Z,58.28
2023-02-11T06:27:35.063Z,62.10
2023-02-11T06:30:03.153Z,60.85
2023-02-11T06:32:46.730Z,56.30
2023-02-11T06:37:43.172Z,65.25
2023-02-11T06:40:11.699Z,56.55
2023-02-11T06:42:39.702Z,66.75
2023-02-11T06:45:09.778Z,49.70
2023-02-11T06:47:38.234Z,56.30
2023-02-11T06:50:08.761Z,64.75
2023-02-11T06:52:36.835Z,64.63
2023-02-11T06:55:05.279Z,59.17
2023-02-11T06:57:33.171Z,65.97
2023-02-11T07:00:01.197Z,72.20
2023-02-11T07:02:29.033Z,62.75
2023-02-11T07:04:57.481Z,78.43
2023-02-11T07:07:24.979Z,78.93
2023-02-11T07:09:52.942Z,71.45
2023-02-11T07:12:20.559Z,70.80
2023-02-11T07:14:48.155Z,68.78
2023-02-11T07:17:16.282Z,72.75
2023-02-11T07:19:44.139Z,71.72
2023-02-11T07:22:12.205Z,77.88
2023-02-11T07:24:40.804Z,71.78
2023-02-11T07:27:08.434Z,71.40
2023-02-11T07:29:36.106Z,62.90
2023-02-11T07:32:04.324Z,74.75
2023-02-11T07:34:33.228Z,69.82
2023-02-11T07:37:01.479Z,78.45
2023-02-11T07:39:29.571Z,77.68
2023-02-11T07:41:57.637Z,75.32
2023-02-11T07:44:26.159Z,74.57
2023-02-11T07:46:54.439Z,66.15
2023-02-11T07:49:22.131Z,72.93
2023-02-11T07:51:51.538Z,68.85
2023-02-11T07:54:19.771Z,68.50
2023-02-11T07:56:47.417Z,71.25
2023-02-11T07:59:15.198Z,80.93
2023-02-11T08:01:44.008Z,66.40
2023-02-11T08:04:12.488Z,75.72
2023-02-11T08:06:42.734Z,77.13
2023-02-11T08:09:15.322Z,68.70
2023-02-11T08:11:43.366Z,72.00
2023-02-11T08:14:12.484Z,68.82
2023-02-11T08:16:41.242Z,83.15
2023-02-11T08:19:15.600Z,57.97
2023-02-11T08:21:43.898Z,56.88
2023-02-11T08:24:12.551Z,58.10
2023-02-11T08:26:40.324Z,61.78
2023-02-11T08:29:14.300Z,49.33
2023-02-11T08:31:45.411Z,56.08
2023-02-11T08:34:14.762Z,65.82
2023-02-11T08:36:43.998Z,65.32
2023-02-11T08:39:20.795Z,58.92
2023-02-11T08:41:53.935Z,51.55
2023-02-11T08:44:23.030Z,51.00
2023-02-11T08:46:52.276Z,55.38
2023-02-11T08:49:20.621Z,62.00
2023-02-11T08:51:48.861Z,59.05
2023-02-11T08:54:16.702Z,65.10
2023-02-11T08:56:45.358Z,79.13
2023-02-11T08:59:15.546Z,69.18
2023-02-11T09:01:44.528Z,70.93
2023-02-11T09:04:13.089Z,58.95
2023-02-11T09:06:41.304Z,70.55
2023-02-11T09:09:13.707Z,59.30
2023-02-11T09:11:43.075Z,53.40
2023-02-11T09:14:22.622Z,52.13
2023-02-11T09:16:51.919Z,48.60
2023-02-11T09:19:21.021Z,56.70
2023-02-11T09:21:49.296Z,48.50
2023-02-11T09:24:17.338Z,53.53
2023-02-11T09:26:46.128Z,41.92
2023-02-11T09:29:14.253Z,39.38
2023-02-11T09:31:42.653Z,48.97
2023-02-11T09:34:11.519Z,54.60
2023-02-11T09:36:40.870Z,51.63
2023-02-11T09:39:20.556Z,46.22
2023-02-11T09:42:03.833Z,44.13
2023-02-11T09:44:37.640Z,41.17
2023-02-11T09:50:00.269Z,38.53
2023-02-11T09:52:48.318Z,51.97
2023-02-11T09:55:29.953Z,50.25
2023-02-11T09:57:58.973Z,45.78
2023-02-11T10:00:29.507Z,47.85
2023-02-11T10:03:20.742Z,48.13
2023-02-11T10:06:14.120Z,46.13
2023-02-11T10:09:17.227Z,50.40
2023-02-11T10:11:53.206Z,43.65
2023-02-11T10:14:39.726Z,47.60
2023-02-11T10:17:18.485Z,52.03
2023-02-11T10:20:17.186Z,46.03
2023-02-11T10:22:58.358Z,49.20
2023-02-11T10:25:39.429Z,49.80
2023-02-11T10:28:20.323Z,44.13
2023-02-11T10:31:34.493Z,43.70
2023-02-11T10:34:07.178Z,40.55
2023-02-11T10:36:38.283Z,48.97
2023-02-11T10:39:18.558Z,44.90
2023-02-11T10:42:01.080Z,44.78
2023-02-11T10:44:38.754Z,46.95
2023-02-11T10:47:19.321Z,48.03
2023-02-11T11:15:11.771Z,51.53
2023-02-11T11:17:40.222Z,44.58
2023-02-11T11:20:19.868Z,47.42
2023-02-11T11:22:49.813Z,58.42
2023-02-11T11:25:23.099Z,45.08
2023-02-11T11:27:55.290Z,43.50
2023-02-11T11:30:26.436Z,48.00
2023-02-11T11:32:54.942Z,46.95
2023-02-11T11:35:28.248Z,46.90
2023-02-11T11:38:02.038Z,53.78
2023-02-11T11:40:33.091Z,45.75
2023-02-11T11:43:14.808Z,48.15
2023-02-11T11:46:00.267Z,47.85
2023-02-11T11:48:50.945Z,51.10
2023-02-11T11:51:19.885Z,52.45
2023-02-11T11:54:01.392Z,50.63
2023-02-11T11:56:33.776Z,52.17
2023-02-11T11:59:07.040Z,53.15
2023-02-11T12:02:02.063Z,54.67
2023-02-11T12:04:39.233Z,55.60
2023-02-11T12:07:12.819Z,52.53
2023-02-11T12:10:14.662Z,48.00
2023-02-11T12:13:18.427Z,51.47
2023-02-11T12:15:55.261Z,47.83
2023-02-11T12:18:56.777Z,48.38
2023-02-11T12:21:43.069Z,54.75
2023-02-11T12:24:48.083Z,56.58
2023-02-11T12:27:32.846Z,48.70
2023-02-11T12:30:13.407Z,41.90
2023-02-11T12:33:15.726Z,45.35
2023-02-11T12:35:58.678Z,39.35
2023-02-11T12:38:48.550Z,44.63
2023-02-11T12:42:04.098Z,50.53
2023-02-11T12:44:58.729Z,43.78
2023-02-11T12:47:35.890Z,41.35
2023-02-11T12:50:27.983Z,44.97
2023-02-11T12:53:14.178Z,44.38
2023-02-11T12:55:46.721Z,52.95
2023-02-11T12:58:29.721Z,45.55
2023-02-11T13:01:26.436Z,47.15
2023-02-11T13:04:08.642Z,52.75
2023-02-11T13:06:52.127Z,43.42
2023-02-11T13:09:43.985Z,50.33
2023-02-11T13:12:32.414Z,37.70
2023-02-11T13:15:07.146Z,34.28
2023-02-11T13:17:50.273Z,38.05
2023-02-11T13:20:18.748Z,36.35
2023-02-11T13:22:59.618Z,35.80
2023-02-11T13:25:33.516Z,45.42
2023-02-11T13:30:39.441Z,32.63
2023-02-11T13:33:17.924Z,29.23
2023-02-11T13:35:51.185Z,26.65
2023-02-11T13:38:25.113Z,24.23
2023-02-11T13:41:23.516Z,15.77
2023-02-11T13:44:19.430Z,17.45
2023-02-11T13:46:50.575Z,19.88
2023-02-11T13:49:22.318Z,24.75
2023-02-11T13:51:51.407Z,24.08
2023-02-11T13:54:30.815Z,18.60
2023-02-11T13:57:20.865Z,19.92
2023-02-11T13:59:52.519Z,23.55
2023-02-11T14:02:55.328Z,24.75
2023-02-11T14:05:43.538Z,24.10
2023-02-11T14:08:30.042Z,24.40
2023-02-11T14:11:10.936Z,26.08
2023-02-11T14:13:47.714Z,27.70
2023-02-11T14:16:37.002Z,21.13
2023-02-11T14:19:06.863Z,25.40
2023-02-11T14:21:38.749Z,23.08
2023-02-11T14:24:07.100Z,21.38
2023-02-11T14:27:11.750Z,28.33
2023-02-11T14:32:35.090Z,28.77
2023-02-11T14:35:18.557Z,34.00
2023-02-11T14:37:57.588Z,31.63
2023-02-11T14:40:35.335Z,28.23
2023-02-11T14:43:29.426Z,24.83
2023-02-11T14:45:59.324Z,24.45
2023-02-11T14:48:39.231Z,28.45
2023-02-11T14:51:10.570Z,52.72
2023-02-11T14:53:44.052Z,34.97
2023-02-11T14:56:26.970Z,33.42
2023-02-11T14:58:55.955Z,30.27
2023-02-11T15:01:35.582Z,40.92
2023-02-11T15:04:06.153Z,35.72
2023-02-11T15:06:49.668Z,35.90
2023-02-11T15:09:24.177Z,39.22
2023-02-11T15:11:53.395Z,37.03
2023-02-11T15:14:30.336Z,42.88
2023-02-11T15:17:06.299Z,34.85
2023-02-11T15:19:38.818Z,31.08
2023-02-11T15:22:18.627Z,32.13
2023-02-11T15:25:10.838Z,33.03
2023-02-11T15:27:43.886Z,33.67
2023-02-11T15:30:24.413Z,31.17
2023-02-11T15:32:58.693Z,30.58
2023-02-11T15:35:33.139Z,28.60
2023-02-11T15:38:01.653Z,40.60
2023-02-11T15:40:33.144Z,40.15
2023-02-11T15:43:09.206Z,41.20
2023-02-11T15:45:42.000Z,46.22
2023-02-11T15:48:18.874Z,46.72
2023-02-11T15:50:55.634Z,52.45
2023-02-11T15:53:38.012Z,49.00
2023-02-11T15:56:17.873Z,48.25
2023-02-11T15:58:49.804Z,48.53
2023-02-11T16:01:18.072Z,55.95
2023-02-11T16:03:50.927Z,58.42
2023-02-11T16:06:25.209Z,57.73
2023-02-11T16:09:12.436Z,51.65
2023-02-11T16:11:46.455Z,58.42
2023-02-11T16:14:39.578Z,52.65
2023-02-11T16:17:25.234Z,56.42
2023-02-11T16:19:54.305Z,53.25
2023-02-11T16:22:35.445Z,52.55
2023-02-11T16:25:03.335Z,51.10
2023-02-11T16:27:41.186Z,69.88
2023-02-11T16:30:28.172Z,54.92
2023-02-11T16:32:56.559Z,55.33
2023-02-11T16:35:24.753Z,60.63
2023-02-11T16:37:52.850Z,55.85
2023-02-11T16:40:21.579Z,56.80
2023-02-11T16:42:49.853Z,50.88
2023-02-11T16:45:18.151Z,57.40
2023-02-11T16:47:46.563Z,58.17
2023-02-11T16:50:23.384Z,60.72
2023-02-11T16:52:53.002Z,54.40
2023-02-11T16:55:22.268Z,54.83
2023-02-11T16:57:50.143Z,48.03
2023-02-11T17:00:19.254Z,59.10
2023-02-11T17:02:47.049Z,54.67
2023-02-11T17:05:20.853Z,51.42
2023-02-11T17:10:21.749Z,49.67
2023-02-11T17:12:51.052Z,61.70
2023-02-11T17:15:19.204Z,63.28
2023-02-11T17:17:46.875Z,51.03
2023-02-11T17:20:16.096Z,61.53
2023-02-11T17:22:44.034Z,60.50
2023-02-11T17:25:12.313Z,67.20
2023-02-11T17:27:40.964Z,60.97
2023-02-11T17:30:10.045Z,57.67
2023-02-11T17:32:39.028Z,56.13
2023-02-11T17:35:07.598Z,69.93
2023-02-11T17:37:35.321Z,68.80
2023-02-11T17:40:03.940Z,62.15
2023-02-11T17:42:31.528Z,73.32
2023-02-11T17:44:59.033Z,79.80
2023-02-11T17:47:27.427Z,66.28
2023-02-11T17:49:54.912Z,64.88
2023-02-11T17:52:24.401Z,68.10
2023-02-11T17:54:52.079Z,63.17
2023-02-11T17:57:20.384Z,63.30
2023-02-11T17:59:47.879Z,65.85
2023-02-11T18:02:16.051Z,69.43
2023-02-11T18:04:44.367Z,67.18
2023-02-11T18:07:12.030Z,72.20
2023-02-11T18:09:40.992Z,60.60
2023-02-11T18:12:10.785Z,75.70
2023-02-11T18:14:40.632Z,62.20
2023-02-11T18:17:09.506Z,63.58
2023-02-11T18:19:37.691Z,69.95
2023-02-11T18:22:05.255Z,65.88
2023-02-11T18:24:33.708Z,80.78
2023-02-11T18:27:01.478Z,67.25
2023-02-11T18:29:29.737Z,63.92
2023-02-11T18:31:58.089Z,74.35
2023-02-11T18:34:26.847Z,82.55
2023-02-11T18:36:54.945Z,61.53
2023-02-11T18:39:24.411Z,68.20
2023-02-11T18:41:57.076Z,68.28
2023-02-11T18:44:27.135Z,68.68
2023-02-11T18:46:55.486Z,77.40
2023-02-11T18:49:23.581Z,60.08
2023-02-11T18:51:51.898Z,62.10
2023-02-11T18:54:19.786Z,70.28
2023-02-11T18:56:47.882Z,59.35
2023-02-11T18:59:15.564Z,65.28
2023-02-11T19:01:46.872Z,67.38
2023-02-11T19:04:20.132Z,70.43
2023-02-11T19:06:49.811Z,74.88
2023-02-11T19:09:19.918Z,73.20
2023-02-11T19:11:48.038Z,65.10
2023-02-11T19:14:22.528Z,71.20
2023-02-11T19:16:53.247Z,79.18
2023-02-11T19:19:23.264Z,90.70
2023-02-11T19:21:51.925Z,94.82
2023-02-11T19:24:20.326Z,85.90
2023-02-11T19:26:50.186Z,88.95
2023-02-11T19:29:18.282Z,83.43
2023-02-11T19:31:46.881Z,82.75
2023-02-11T19:34:16.665Z,72.68
2023-02-11T19:36:44.446Z,76.82
2023-02-11T19:39:12.725Z,69.78
2023-02-11T19:41:40.866Z,71.25
2023-02-11T19:44:09.972Z,78.47
2023-02-11T19:46:41.073Z,78.72
2023-02-11T19:49:10.104Z,78.25
2023-02-11T19:51:39.473Z,74.88
2023-02-11T19:54:08.426Z,76.13
2023-02-11T19:56:37.974Z,74.45
2023-02-11T19:59:09.065Z,76.63
2023-02-11T20:01:37.334Z,99.75
2023-02-11T20:04:06.010Z,82.95
2023-02-11T20:06:34.795Z,80.18
2023-02-11T20:09:06.644Z,76.78
2023-02-11T20:11:35.624Z,103.65
2023-02-11T20:14:04.343Z,83.10
2023-02-11T20:16:47.024Z,91.97
2023-02-11T20:19:18.374Z,81.50
2023-02-11T20:21:48.620Z,71.38
2023-02-11T20:24:18.881Z,78.43
2023-02-11T20:26:48.605Z,76.70
2023-02-11T20:29:17.609Z,79.50
2023-02-11T20:31:45.781Z,80.07
2023-02-11T20:34:17.061Z,70.88
2023-02-11T20:36:51.532Z,72.90
2023-02-11T20:39:22.370Z,87.78
2023-02-11T20:41:51.261Z,78.05
2023-02-11T20:44:23.834Z,82.22
2023-02-11T20:46:52.156Z,85.35
2023-02-11T20:49:23.692Z,72.68
2023-02-11T20:51:53.361Z,69.85
2023-02-11T20:54:23.491Z,84.13
2023-02-11T20:56:53.718Z,74.57
2023-02-11T20:59:22.024Z,73.10
2023-02-11T21:01:55.841Z,70.65
2023-02-11T21:06:56.725Z,76.60
2023-02-11T21:09:28.086Z,82.90
2023-02-11T21:11:55.994Z,90.20
2023-02-11T21:14:25.886Z,89.05
2023-02-11T21:16:54.191Z,81.68
2023-02-11T21:19:21.894Z,87.97
2023-02-11T21:21:50.440Z,76.97
2023-02-11T21:24:18.486Z,86.38
2023-02-11T21:26:46.106Z,80.95
2023-02-11T21:29:14.043Z,98.15
2023-02-11T21:31:42.551Z,95.93
2023-02-11T21:34:10.801Z,84.03
2023-02-11T21:36:39.174Z,86.65
2023-02-11T21:39:07.083Z,93.85
2023-02-11T21:41:35.619Z,94.93
2023-02-11T21:44:06.120Z,91.30
2023-02-11T21:46:33.665Z,98.53
2023-02-11T21:49:01.880Z,101.75
2023-02-11T21:51:30.266Z,86.28
2023-02-11T21:54:03.070Z,87.70
2023-02-11T21:56:32.159Z,87.88
2023-02-11T21:59:00.706Z,85.47
2023-02-11T22:01:31.160Z,86.38
2023-02-11T22:04:00.176Z,80.43
2023-02-11T22:06:32.949Z,95.07
2023-02-11T22:09:07.479Z,92.87
2023-02-11T22:11:36.310Z,84.13
2023-02-11T22:14:04.794Z,94.18
2023-02-11T22:16:33.446Z,96.50
2023-02-11T22:19:02.566Z,99.82
2023-02-11T22:21:30.985Z,87.50
2023-02-11T22:23:59.069Z,91.35
2023-02-11T22:26:28.650Z,89.55
2023-02-11T22:28:56.588Z,89.35
2023-02-11T22:31:30.688Z,98.07
2023-02-11T22:34:00.180Z,100.22
2023-02-11T22:36:30.838Z,94.38
2023-02-11T22:39:11.548Z,98.47
2023-02-11T22:41:42.372Z,90.97
2023-02-11T22:44:11.135Z,92.38
2023-02-11T22:46:39.198Z,95.82
2023-02-11T22:49:07.858Z,114.43
2023-02-11T22:51:35.641Z,100.13
2023-02-11T22:54:06.558Z,108.15
2023-02-11T22:56:35.331Z,122.45
2023-02-11T22:59:07.927Z,120.40
2023-02-11T23:01:35.543Z,111.47
2023-02-11T23:04:05.009Z,113.75
2023-02-11T23:06:33.083Z,115.47
2023-02-11T23:09:01.587Z,106.40
2023-02-11T23:11:31.336Z,99.70
2023-02-11T23:13:59.428Z,99.72
2023-02-11T23:16:34.132Z,89.22
2023-02-11T23:19:09.151Z,97.38
2023-02-11T23:21:39.560Z,90.93
2023-02-11T23:24:12.676Z,89.03
2023-02-11T23:26:41.751Z,90.35
2023-02-11T23:29:10.568Z,89.75
2023-02-11T23:31:41.316Z,104.80
2023-02-11T23:34:09.885Z,86.95
2023-02-11T23:36:37.848Z,93.03
2023-02-11T23:39:05.941Z,97.03
2023-02-11T23:41:33.882Z,98.53
2023-02-11T23:44:01.765Z,96.05
2023-02-11T23:46:29.364Z,96.15
2023-02-11T23:48:58.203Z,105.80
2023-02-11T23:51:25.916Z,98.22
2023-02-11T23:53:56.176Z,99.47
2023-02-11T23:56:27.112Z,90.53
2023-02-11T23:58:57.360Z,78.18
